Terminal Aerodrome Forecast
Issued by NWS

Home | Current Version | Previous Version | Text Only | Print | Product List | Glossary On
Versions: 1 2 3 4 5 6 7 8 9 10 11 12 13 14 15 16 17 18 19 20 21 22 23 24 25
000
FTUS41 KBGM 242300
TAFRME
TAF
KRME 242339Z 2500/2524 12007KT P6SM -DZ OVC020 WS020/20045KT
      TEMPO 2504/2507 OVC012
     FM250700 25015G30KT 5SM SHRA OVC012
     FM250900 28018G35KT P6SM BKN025
     FM251400 28018G30KT P6SM OVC020=

USA.gov is the U.S. government's official web portal to all federal, state and local government web resources and services.